sensor_id;sensor_type;location;lat;lon;timestamp;temperature;humidity
262;DHT22;114;48.260;10.988;2022-10-31T00:03:49;8.00;99.90
262;DHT22;114;48.260;10.988;2022-10-31T00:06:15;8.00;99.90
262;DHT22;114;48.260;10.988;2022-10-31T00:08:47;7.90;99.90
262;DHT22;114;48.260;10.988;2022-10-31T00:11:13;7.90;99.90
262;DHT22;114;48.260;10.988;2022-10-31T00:13:39;7.90;99.90
262;DHT22;114;48.260;10.988;2022-10-31T00:16:05;7.90;99.90
262;DHT22;114;48.260;10.988;2022-10-31T00:18:37;7.80;99.90
262;DHT22;114;48.260;10.988;2022-10-31T00:21:03;7.80;99.90
262;DHT22;114;48.260;10.988;2022-10-31T00:23:29;7.70;99.90
262;DHT22;114;48.260;10.988;2022-10-31T00:26:03;7.70;99.90
262;DHT22;114;48.260;10.988;2022-10-31T00:28:29;7.70;99.90
262;DHT22;114;48.260;10.988;2022-10-31T00:31:04;7.70;99.90
262;DHT22;114;48.260;10.988;2022-10-31T00:33:30;7.70;99.90
262;DHT22;114;48.260;10.988;2022-10-31T00:35:55;7.60;99.90
262;DHT22;114;48.260;10.988;2022-10-31T00:38:22;7.80;99.90
262;DHT22;114;48.260;10.988;2022-10-31T00:40:47;7.60;99.90
262;DHT22;114;48.260;10.988;2022-10-31T00:43:13;7.60;99.90
262;DHT22;114;48.260;10.988;2022-10-31T00:45:39;7.60;99.90
262;DHT22;114;48.260;10.988;2022-10-31T00:48:05;7.60;99.90
262;DHT22;114;48.260;10.988;2022-10-31T00:50:30;7.60;99.90
262;DHT22;114;48.260;10.988;2022-10-31T00:52:56;7.50;99.90
262;DHT22;114;48.260;10.988;2022-10-31T00:55:23;7.50;99.90
262;DHT22;114;48.260;10.988;2022-10-31T00:57:49;7.50;99.90
262;DHT22;114;48.260;10.988;2022-10-31T01:00:15;7.50;99.90
262;DHT22;114;48.260;10.988;2022-10-31T01:02:41;7.50;99.90
262;DHT22;114;48.260;10.988;2022-10-31T01:05:07;7.50;99.90
262;DHT22;114;48.260;10.988;2022-10-31T01:07:35;7.50;99.90
262;DHT22;114;48.260;10.988;2022-10-31T01:10:01;7.50;99.90
262;DHT22;114;48.260;10.988;2022-10-31T01:12:27;7.50;99.90
262;DHT22;114;48.260;10.988;2022-10-31T01:14:53;7.50;99.90
262;DHT22;114;48.260;10.988;2022-10-31T01:17:18;7.50;99.90
262;DHT22;114;48.260;10.988;2022-10-31T01:19:45;7.40;99.90
262;DHT22;114;48.260;10.988;2022-10-31T01:22:10;7.50;99.90
262;DHT22;114;48.260;10.988;2022-10-31T01:24:36;7.40;99.90
262;DHT22;114;48.260;10.988;2022-10-31T01:27:02;7.40;99.90
262;DHT22;114;48.260;10.988;2022-10-31T01:29:28;7.40;99.90
262;DHT22;114;48.260;10.988;2022-10-31T01:31:54;7.40;99.90
262;DHT22;114;48.260;10.988;2022-10-31T01:34:20;7.30;99.90
262;DHT22;114;48.260;10.988;2022-10-31T01:36:45;7.30;99.90
262;DHT22;114;48.260;10.988;2022-10-31T01:39:16;7.30;99.90
262;DHT22;114;48.260;10.988;2022-10-31T01:41:45;7.30;99.90
262;DHT22;114;48.260;10.988;2022-10-31T01:46:46;7.30;99.90
262;DHT22;114;48.260;10.988;2022-10-31T01:52:00;7.20;99.90
262;DHT22;114;48.260;10.988;2022-10-31T01:54:33;7.20;99.90
262;DHT22;114;48.260;10.988;2022-10-31T01:57:01;7.20;99.90
262;DHT22;114;48.260;10.988;2022-10-31T01:59:30;7.20;99.90
262;DHT22;114;48.260;10.988;2022-10-31T02:01:57;7.30;99.90
262;DHT22;114;48.260;10.988;2022-10-31T02:04:24;7.30;99.90
262;DHT22;114;48.260;10.988;2022-10-31T02:07:03;7.30;99.90
262;DHT22;114;48.260;10.988;2022-10-31T02:09:34;7.20;99.90
262;DHT22;114;48.260;10.988;2022-10-31T02:12:01;7.20;99.90
262;DHT22;114;48.260;10.988;2022-10-31T02:14:28;7.20;99.90
262;DHT22;114;48.260;10.988;2022-10-31T02:16:54;7.20;99.90
262;DHT22;114;48.260;10.988;2022-10-31T02:19:40;7.10;99.90
262;DHT22;114;48.260;10.988;2022-10-31T02:22:16;7.10;99.90
262;DHT22;114;48.260;10.988;2022-10-31T02:30:20;7.10;99.90
262;DHT22;114;48.260;10.988;2022-10-31T02:41:04;7.00;99.90
262;DHT22;114;48.260;10.988;2022-10-31T02:47:08;6.90;99.90
262;DHT22;114;48.260;10.988;2022-10-31T02:49:33;7.00;99.90
262;DHT22;114;48.260;10.988;2022-10-31T02:52:00;7.00;99.90
262;DHT22;114;48.260;10.988;2022-10-31T02:54:27;6.90;99.90
262;DHT22;114;48.260;10.988;2022-10-31T02:56:59;7.00;99.90
262;DHT22;114;48.260;10.988;2022-10-31T02:59:26;6.90;99.90
262;DHT22;114;48.260;10.988;2022-10-31T03:01:56;6.90;99.90
262;DHT22;114;48.260;10.988;2022-10-31T03:07:08;6.80;99.90
262;DHT22;114;48.260;10.988;2022-10-31T03:10:15;6.80;99.90
262;DHT22;114;48.260;10.988;2022-10-31T03:13:12;6.80;99.90
262;DHT22;114;48.260;10.988;2022-10-31T03:15:47;6.80;99.90
262;DHT22;114;48.260;10.988;2022-10-31T03:18:28;6.80;99.90
262;DHT22;114;48.260;10.988;2022-10-31T03:21:13;6.80;99.90
262;DHT22;114;48.260;10.988;2022-10-31T03:23:42;6.80;99.90
262;DHT22;114;48.260;10.988;2022-10-31T03:26:10;6.80;99.90
262;DHT22;114;48.260;10.988;2022-10-31T03:28:59;6.70;99.90
262;DHT22;114;48.260;10.988;2022-10-31T03:31:32;6.70;99.90
262;DHT22;114;48.260;10.988;2022-10-31T03:34:01;6.70;99.90
262;DHT22;114;48.260;10.988;2022-10-31T03:36:30;6.70;99.90
262;DHT22;114;48.260;10.988;2022-10-31T03:38:58;6.60;99.90
262;DHT22;114;48.260;10.988;2022-10-31T03:41:29;6.60;99.90
262;DHT22;114;48.260;10.988;2022-10-31T03:43:59;6.60;99.90
262;DHT22;114;48.260;10.988;2022-10-31T03:46:27;6.60;99.90
262;DHT22;114;48.260;10.988;2022-10-31T03:48:53;6.60;99.90
262;DHT22;114;48.260;10.988;2022-10-31T03:51:41;6.60;99.90
262;DHT22;114;48.260;10.988;2022-10-31T03:57:08;6.60;99.90
262;DHT22;114;48.260;10.988;2022-10-31T03:59:41;6.60;99.90
262;DHT22;114;48.260;10.988;2022-10-31T04:02:13;6.60;99.90
262;DHT22;114;48.260;10.988;2022-10-31T04:04:41;6.60;99.90
262;DHT22;114;48.260;10.988;2022-10-31T04:07:10;6.70;99.90
262;DHT22;114;48.260;10.988;2022-10-31T04:09:39;6.60;99.90
262;DHT22;114;48.260;10.988;2022-10-31T04:12:08;6.60;99.90
262;DHT22;114;48.260;10.988;2022-10-31T04:14:38;6.60;99.90
262;DHT22;114;48.260;10.988;2022-10-31T04:17:09;6.60;99.90
262;DHT22;114;48.260;10.988;2022-10-31T04:19:36;6.50;99.90
262;DHT22;114;48.260;10.988;2022-10-31T04:22:01;6.40;99.90
262;DHT22;114;48.260;10.988;2022-10-31T04:24:27;6.40;99.90
262;DHT22;114;48.260;10.988;2022-10-31T04:26:53;6.40;99.90
262;DHT22;114;48.260;10.988;2022-10-31T04:29:18;6.40;99.90
262;DHT22;114;48.260;10.988;2022-10-31T04:31:44;6.40;99.90
262;DHT22;114;48.260;10.988;2022-10-31T04:34:10;6.40;99.90
262;DHT22;114;48.260;10.988;2022-10-31T04:36:35;6.30;99.90
262;DHT22;114;48.260;10.988;2022-10-31T04:39:01;6.30;99.90
262;DHT22;114;48.260;10.988;2022-10-31T04:41:27;6.20;99.90
262;DHT22;114;48.260;10.988;2022-10-31T04:43:52;6.20;99.90
262;DHT22;114;48.260;10.988;2022-10-31T04:46:18;6.20;99.90
262;DHT22;114;48.260;10.988;2022-10-31T04:48:44;6.30;99.90
262;DHT22;114;48.260;10.988;2022-10-31T04:51:10;6.30;99.90
262;DHT22;114;48.260;10.988;2022-10-31T04:53:37;6.20;99.90
262;DHT22;114;48.260;10.988;2022-10-31T04:56:02;6.20;99.90
262;DHT22;114;48.260;10.988;2022-10-31T04:58:28;6.20;99.90
262;DHT22;114;48.260;10.988;2022-10-31T05:00:55;6.20;99.90
262;DHT22;114;48.260;10.988;2022-10-31T05:03:21;6.10;99.90
262;DHT22;114;48.260;10.988;2022-10-31T05:05:47;6.10;99.90
262;DHT22;114;48.260;10.988;2022-10-31T05:08:13;6.10;99.90
262;DHT22;114;48.260;10.988;2022-10-31T05:10:39;6.10;99.90
262;DHT22;114;48.260;10.988;2022-10-31T05:13:05;6.10;99.90
262;DHT22;114;48.260;10.988;2022-10-31T05:15:31;6.10;99.90
262;DHT22;114;48.260;10.988;2022-10-31T05:17:57;6.10;99.90
262;DHT22;114;48.260;10.988;2022-10-31T05:20:26;6.10;99.90
262;DHT22;114;48.260;10.988;2022-10-31T05:22:54;6.10;99.90
262;DHT22;114;48.260;10.988;2022-10-31T05:25:21;6.00;99.90
262;DHT22;114;48.260;10.988;2022-10-31T05:27:49;6.00;99.90
262;DHT22;114;48.260;10.988;2022-10-31T05:30:27;6.10;99.90
262;DHT22;114;48.260;10.988;2022-10-31T05:32:54;6.00;99.90
262;DHT22;114;48.260;10.988;2022-10-31T05:35:26;6.10;99.90
262;DHT22;114;48.260;10.988;2022-10-31T05:37:52;6.00;99.90
262;DHT22;114;48.260;10.988;2022-10-31T05:40:19;6.00;99.90
262;DHT22;114;48.260;10.988;2022-10-31T05:42:45;6.00;99.90
262;DHT22;114;48.260;10.988;2022-10-31T05:45:13;5.90;99.90
262;DHT22;114;48.260;10.988;2022-10-31T05:47:39;5.90;99.90
262;DHT22;114;48.260;10.988;2022-10-31T05:50:06;5.90;99.90
262;DHT22;114;48.260;10.988;2022-10-31T05:52:32;5.90;99.90
262;DHT22;114;48.260;10.988;2022-10-31T05:54:57;6.20;99.90
262;DHT22;114;48.260;10.988;2022-10-31T05:57:23;6.70;99.90
262;DHT22;114;48.260;10.988;2022-10-31T05:59:49;7.00;99.90
262;DHT22;114;48.260;10.988;2022-10-31T06:02:18;6.90;99.90
262;DHT22;114;48.260;10.988;2022-10-31T06:04:44;7.00;99.90
262;DHT22;114;48.260;10.988;2022-10-31T06:07:10;7.10;99.90
262;DHT22;114;48.260;10.988;2022-10-31T06:09:35;7.00;99.90
262;DHT22;114;48.260;10.988;2022-10-31T06:12:01;7.10;99.90
262;DHT22;114;48.260;10.988;2022-10-31T06:14:27;7.10;99.90
262;DHT22;114;48.260;10.988;2022-10-31T06:16:54;7.10;99.90
262;DHT22;114;48.260;10.988;2022-10-31T06:19:20;7.20;99.90
262;DHT22;114;48.260;10.988;2022-10-31T06:21:45;7.10;99.90
262;DHT22;114;48.260;10.988;2022-10-31T06:24:11;7.10;99.90
262;DHT22;114;48.260;10.988;2022-10-31T06:26:37;7.20;99.90
262;DHT22;114;48.260;10.988;2022-10-31T06:29:02;7.20;99.90
262;DHT22;114;48.260;10.988;2022-10-31T06:31:28;7.10;98.20
262;DHT22;114;48.260;10.988;2022-10-31T06:33:54;6.90;97.60
262;DHT22;114;48.260;10.988;2022-10-31T06:36:19;6.70;96.70
262;DHT22;114;48.260;10.988;2022-10-31T06:38:52;6.70;97.30
262;DHT22;114;48.260;10.988;2022-10-31T06:41:18;6.60;96.60
262;DHT22;114;48.260;10.988;2022-10-31T06:43:46;6.70;96.70
262;DHT22;114;48.260;10.988;2022-10-31T06:46:12;6.60;96.70
262;DHT22;114;48.260;10.988;2022-10-31T06:48:39;6.60;97.00
262;DHT22;114;48.260;10.988;2022-10-31T06:51:05;6.70;97.50
262;DHT22;114;48.260;10.988;2022-10-31T06:53:31;6.70;97.50
262;DHT22;114;48.260;10.988;2022-10-31T06:55:56;6.70;97.70
262;DHT22;114;48.260;10.988;2022-10-31T06:58:22;6.80;97.90
262;DHT22;114;48.260;10.988;2022-10-31T07:00:48;6.90;98.60
262;DHT22;114;48.260;10.988;2022-10-31T07:03:14;7.10;98.50
262;DHT22;114;48.260;10.988;2022-10-31T07:05:41;7.10;98.00
262;DHT22;114;48.260;10.988;2022-10-31T07:08:12;7.20;97.70
262;DHT22;114;48.260;10.988;2022-10-31T07:10:39;7.30;96.90
262;DHT22;114;48.260;10.988;2022-10-31T07:13:08;7.30;96.20
262;DHT22;114;48.260;10.988;2022-10-31T07:15:36;7.40;96.50
262;DHT22;114;48.260;10.988;2022-10-31T07:18:03;7.70;98.00
262;DHT22;114;48.260;10.988;2022-10-31T07:20:30;8.00;98.40
262;DHT22;114;48.260;10.988;2022-10-31T07:22:56;8.40;98.80
262;DHT22;114;48.260;10.988;2022-10-31T07:25:22;8.60;96.30
262;DHT22;114;48.260;10.988;2022-10-31T07:27:48;8.70;95.00
262;DHT22;114;48.260;10.988;2022-10-31T07:30:14;8.70;93.50
262;DHT22;114;48.260;10.988;2022-10-31T07:32:42;8.90;93.70
262;DHT22;114;48.260;10.988;2022-10-31T07:35:10;9.10;93.90
262;DHT22;114;48.260;10.988;2022-10-31T07:37:37;9.30;92.50
262;DHT22;114;48.260;10.988;2022-10-31T07:40:03;9.60;91.40
262;DHT22;114;48.260;10.988;2022-10-31T07:42:35;9.80;88.30
262;DHT22;114;48.260;10.988;2022-10-31T07:45:01;9.80;85.60
262;DHT22;114;48.260;10.988;2022-10-31T07:47:27;9.90;84.70
262;DHT22;114;48.260;10.988;2022-10-31T07:49:52;10.00;85.30
262;DHT22;114;48.260;10.988;2022-10-31T07:52:18;10.10;85.60
262;DHT22;114;48.260;10.988;2022-10-31T07:54:43;10.20;85.70
262;DHT22;114;48.260;10.988;2022-10-31T07:57:09;10.30;85.30
262;DHT22;114;48.260;10.988;2022-10-31T07:59:35;10.40;82.50
262;DHT22;114;48.260;10.988;2022-10-31T08:02:01;10.50;82.60
262;DHT22;114;48.260;10.988;2022-10-31T08:04:26;10.70;83.00
262;DHT22;114;48.260;10.988;2022-10-31T08:06:52;10.90;81.90
262;DHT22;114;48.260;10.988;2022-10-31T08:09:17;11.00;79.50
262;DHT22;114;48.260;10.988;2022-10-31T08:11:43;11.30;80.70
262;DHT22;114;48.260;10.988;2022-10-31T08:14:09;11.40;76.30
262;DHT22;114;48.260;10.988;2022-10-31T08:16:34;11.70;77.50
262;DHT22;114;48.260;10.988;2022-10-31T08:19:00;12.00;77.30
262;DHT22;114;48.260;10.988;2022-10-31T08:21:26;12.30;74.50
262;DHT22;114;48.260;10.988;2022-10-31T08:23:51;12.50;72.10
262;DHT22;114;48.260;10.988;2022-10-31T08:26:17;12.70;69.50
262;DHT22;114;48.260;10.988;2022-10-31T08:28:43;12.80;63.50
262;DHT22;114;48.260;10.988;2022-10-31T08:31:08;13.00;60.00
262;DHT22;114;48.260;10.988;2022-10-31T08:33:35;13.00;58.40
262;DHT22;114;48.260;10.988;2022-10-31T08:36:01;13.20;57.80
262;DHT22;114;48.260;10.988;2022-10-31T08:38:27;13.30;54.80
262;DHT22;114;48.260;10.988;2022-10-31T08:40:52;13.40;54.00
262;DHT22;114;48.260;10.988;2022-10-31T08:43:18;13.60;54.20
262;DHT22;114;48.260;10.988;2022-10-31T08:45:48;13.70;50.70
262;DHT22;114;48.260;10.988;2022-10-31T08:48:16;14.00;47.90
262;DHT22;114;48.260;10.988;2022-10-31T08:50:43;14.30;37.60
262;DHT22;114;48.260;10.988;2022-10-31T08:53:12;14.50;34.20
262;DHT22;114;48.260;10.988;2022-10-31T08:55:39;14.70;31.50
262;DHT22;114;48.260;10.988;2022-10-31T08:58:09;14.90;28.50
262;DHT22;114;48.260;10.988;2022-10-31T09:00:35;15.10;28.90
262;DHT22;114;48.260;10.988;2022-10-31T09:03:12;15.20;27.90
262;DHT22;114;48.260;10.988;2022-10-31T09:05:38;15.40;27.30
262;DHT22;114;48.260;10.988;2022-10-31T09:08:05;15.70;25.90
262;DHT22;114;48.260;10.988;2022-10-31T09:10:33;15.80;22.90
262;DHT22;114;48.260;10.988;2022-10-31T09:13:04;16.00;21.50
262;DHT22;114;48.260;10.988;2022-10-31T09:15:34;16.20;21.00
262;DHT22;114;48.260;10.988;2022-10-31T09:18:01;16.40;19.30
262;DHT22;114;48.260;10.988;2022-10-31T09:20:27;16.60;15.90
262;DHT22;114;48.260;10.988;2022-10-31T09:23:01;16.70;17.60
262;DHT22;114;48.260;10.988;2022-10-31T09:25:28;16.70;15.70
262;DHT22;114;48.260;10.988;2022-10-31T09:27:58;16.90;14.60
262;DHT22;114;48.260;10.988;2022-10-31T09:30:30;17.00;12.70
262;DHT22;114;48.260;10.988;2022-10-31T09:33:00;17.10;11.90
262;DHT22;114;48.260;10.988;2022-10-31T09:35:26;17.30;10.10
262;DHT22;114;48.260;10.988;2022-10-31T09:37:56;17.20;9.60
262;DHT22;114;48.260;10.988;2022-10-31T09:40:39;17.30;10.40
262;DHT22;114;48.260;10.988;2022-10-31T09:56:31;18.20;9.60
262;DHT22;114;48.260;10.988;2022-10-31T09:59:03;18.30;8.30
262;DHT22;114;48.260;10.988;2022-10-31T10:01:49;18.50;8.70
262;DHT22;114;48.260;10.988;2022-10-31T10:04:39;18.50;7.00
262;DHT22;114;48.260;10.988;2022-10-31T10:19:13;18.70;10.20
262;DHT22;114;48.260;10.988;2022-10-31T10:21:51;19.00;8.00
262;DHT22;114;48.260;10.988;2022-10-31T10:27:17;19.70;3.20
262;DHT22;114;48.260;10.988;2022-10-31T10:30:02;19.90;2.40
262;DHT22;114;48.260;10.988;2022-10-31T10:32:31;19.90;2.50
262;DHT22;114;48.260;10.988;2022-10-31T10:35:19;20.20;1.80
262;DHT22;114;48.260;10.988;2022-10-31T10:37:47;20.10;2.90
262;DHT22;114;48.260;10.988;2022-10-31T10:40:17;20.30;2.50
262;DHT22;114;48.260;10.988;2022-10-31T10:45:51;20.10;3.50
262;DHT22;114;48.260;10.988;2022-10-31T10:51:20;20.00;3.70
262;DHT22;114;48.260;10.988;2022-10-31T10:56:54;20.20;3.40
262;DHT22;114;48.260;10.988;2022-10-31T10:59:19;20.50;1.40
262;DHT22;114;48.260;10.988;2022-10-31T11:01:46;20.80;1.00
262;DHT22;114;48.260;10.988;2022-10-31T11:04:38;20.90;1.00
262;DHT22;114;48.260;10.988;2022-10-31T11:07:07;21.80;1.00
262;DHT22;114;48.260;10.988;2022-10-31T11:09:34;22.20;1.00
262;DHT22;114;48.260;10.988;2022-10-31T11:12:17;22.00;1.00
262;DHT22;114;48.260;10.988;2022-10-31T11:14:53;22.10;1.00
262;DHT22;114;48.260;10.988;2022-10-31T11:17:38;22.60;1.00
262;DHT22;114;48.260;10.988;2022-10-31T11:22:38;23.40;1.00
262;DHT22;114;48.260;10.988;2022-10-31T11:25:23;23.50;1.00
262;DHT22;114;48.260;10.988;2022-10-31T11:28:03;22.90;1.00
262;DHT22;114;48.260;10.988;2022-10-31T11:30:30;22.80;1.00
262;DHT22;114;48.260;10.988;2022-10-31T11:32:56;22.80;1.00
262;DHT22;114;48.260;10.988;2022-10-31T11:35:24;22.40;1.00
262;DHT22;114;48.260;10.988;2022-10-31T11:37:51;22.00;1.00
262;DHT22;114;48.260;10.988;2022-10-31T11:40:20;22.10;1.00
262;DHT22;114;48.260;10.988;2022-10-31T11:42:47;22.10;1.00
262;DHT22;114;48.260;10.988;2022-10-31T11:47:48;21.30;1.00
262;DHT22;114;48.260;10.988;2022-10-31T11:50:26;21.20;1.00
262;DHT22;114;48.260;10.988;2022-10-31T11:52:53;21.00;1.00
262;DHT22;114;48.260;10.988;2022-10-31T11:55:37;20.70;1.00
262;DHT22;114;48.260;10.988;2022-10-31T11:58:03;20.50;1.00
262;DHT22;114;48.260;10.988;2022-10-31T12:00:32;20.50;1.00
262;DHT22;114;48.260;10.988;2022-10-31T12:03:28;20.70;1.00
262;DHT22;114;48.260;10.988;2022-10-31T12:08:41;21.70;1.00
262;DHT22;114;48.260;10.988;2022-10-31T12:17:00;25.00;1.00
262;DHT22;114;48.260;10.988;2022-10-31T12:20:31;25.10;1.00
262;DHT22;114;48.260;10.988;2022-10-31T12:27:58;26.00;1.00
262;DHT22;114;48.260;10.988;2022-10-31T12:35:50;26.50;1.00
262;DHT22;114;48.260;10.988;2022-10-31T12:47:06;24.20;1.00
262;DHT22;114;48.260;10.988;2022-10-31T12:58:24;22.50;1.00
262;DHT22;114;48.260;10.988;2022-10-31T13:01:13;21.90;1.00
262;DHT22;114;48.260;10.988;2022-10-31T13:06:35;21.30;1.00
262;DHT22;114;48.260;10.988;2022-10-31T13:09:11;20.90;1.00
262;DHT22;114;48.260;10.988;2022-10-31T13:11:53;20.50;1.00
262;DHT22;114;48.260;10.988;2022-10-31T13:14:29;20.20;3.50
262;DHT22;114;48.260;10.988;2022-10-31T13:16:56;20.10;4.70
262;DHT22;114;48.260;10.988;2022-10-31T13:24:33;19.60;10.40
262;DHT22;114;48.260;10.988;2022-10-31T13:27:03;19.70;8.80
262;DHT22;114;48.260;10.988;2022-10-31T13:29:42;19.80;7.90
262;DHT22;114;48.260;10.988;2022-10-31T13:32:10;19.60;9.50
262;DHT22;114;48.260;10.988;2022-10-31T13:34:47;19.60;9.80
262;DHT22;114;48.260;10.988;2022-10-31T13:42:57;20.00;7.30
262;DHT22;114;48.260;10.988;2022-10-31T13:45:25;20.00;8.60
262;DHT22;114;48.260;10.988;2022-10-31T13:48:17;20.00;7.60
262;DHT22;114;48.260;10.988;2022-10-31T13:50:56;19.80;9.60
262;DHT22;114;48.260;10.988;2022-10-31T13:53:34;19.70;11.70
262;DHT22;114;48.260;10.988;2022-10-31T13:56:36;19.60;11.90
262;DHT22;114;48.260;10.988;2022-10-31T14:02:01;19.20;15.30
262;DHT22;114;48.260;10.988;2022-10-31T14:04:38;19.10;16.90
262;DHT22;114;48.260;10.988;2022-10-31T14:07:15;18.90;18.40
262;DHT22;114;48.260;10.988;2022-10-31T14:12:37;18.60;22.20
262;DHT22;114;48.260;10.988;2022-10-31T14:15:25;18.60;23.10
262;DHT22;114;48.260;10.988;2022-10-31T14:18:03;18.50;24.70
262;DHT22;114;48.260;10.988;2022-10-31T14:20:43;18.50;25.20
262;DHT22;114;48.260;10.988;2022-10-31T14:23:33;18.30;27.00
262;DHT22;114;48.260;10.988;2022-10-31T14:28:53;18.10;30.00
262;DHT22;114;48.260;10.988;2022-10-31T14:34:19;18.10;29.30
262;DHT22;114;48.260;10.988;2022-10-31T14:50:58;17.80;35.30
262;DHT22;114;48.260;10.988;2022-10-31T14:53:29;17.80;35.40
262;DHT22;114;48.260;10.988;2022-10-31T14:55:59;17.80;34.00
262;DHT22;114;48.260;10.988;2022-10-31T14:58:40;17.70;36.10
262;DHT22;114;48.260;10.988;2022-10-31T15:01:26;17.50;37.20
262;DHT22;114;48.260;10.988;2022-10-31T15:03:57;17.40;38.30
262;DHT22;114;48.260;10.988;2022-10-31T15:06:24;17.30;40.40
262;DHT22;114;48.260;10.988;2022-10-31T15:08:53;17.30;41.30
262;DHT22;114;48.260;10.988;2022-10-31T15:11:25;17.20;41.90
262;DHT22;114;48.260;10.988;2022-10-31T15:13:53;17.10;43.80
262;DHT22;114;48.260;10.988;2022-10-31T15:16:31;16.80;44.20
262;DHT22;114;48.260;10.988;2022-10-31T15:19:07;17.00;44.30
262;DHT22;114;48.260;10.988;2022-10-31T15:21:36;16.90;46.40
262;DHT22;114;48.260;10.988;2022-10-31T15:24:05;16.90;47.70
262;DHT22;114;48.260;10.988;2022-10-31T15:26:43;17.10;49.00
262;DHT22;114;48.260;10.988;2022-10-31T15:29:14;16.80;48.40
262;DHT22;114;48.260;10.988;2022-10-31T15:32:18;16.80;48.90
262;DHT22;114;48.260;10.988;2022-10-31T15:34:45;16.70;49.00
262;DHT22;114;48.260;10.988;2022-10-31T15:37:12;16.60;50.10
262;DHT22;114;48.260;10.988;2022-10-31T15:39:39;16.50;51.80
262;DHT22;114;48.260;10.988;2022-10-31T15:42:13;16.40;54.10
262;DHT22;114;48.260;10.988;2022-10-31T15:44:41;16.30;57.20
262;DHT22;114;48.260;10.988;2022-10-31T15:47:16;16.20;57.80
262;DHT22;114;48.260;10.988;2022-10-31T15:49:51;16.10;60.50
262;DHT22;114;48.260;10.988;2022-10-31T15:52:44;15.90;62.80
262;DHT22;114;48.260;10.988;2022-10-31T15:55:20;15.70;65.60
262;DHT22;114;48.260;10.988;2022-10-31T15:57:48;15.50;69.30
262;DHT22;114;48.260;10.988;2022-10-31T16:00:41;15.40;72.60
262;DHT22;114;48.260;10.988;2022-10-31T16:08:45;14.90;82.20
262;DHT22;114;48.260;10.988;2022-10-31T16:11:20;14.70;85.60
262;DHT22;114;48.260;10.988;2022-10-31T16:14:07;14.50;87.80
262;DHT22;114;48.260;10.988;2022-10-31T16:16:44;14.40;90.00
262;DHT22;114;48.260;10.988;2022-10-31T16:19:17;14.30;91.00
262;DHT22;114;48.260;10.988;2022-10-31T16:21:44;14.20;92.60
262;DHT22;114;48.260;10.988;2022-10-31T16:24:18;14.00;93.70
262;DHT22;114;48.260;10.988;2022-10-31T16:26:50;14.00;95.00
262;DHT22;114;48.260;10.988;2022-10-31T16:29:43;13.80;95.30
262;DHT22;114;48.260;10.988;2022-10-31T16:32:32;13.70;95.80
262;DHT22;114;48.260;10.988;2022-10-31T16:37:24;13.60;96.90
262;DHT22;114;48.260;10.988;2022-10-31T16:39:50;13.50;97.60
262;DHT22;114;48.260;10.988;2022-10-31T16:42:15;13.40;98.30
262;DHT22;114;48.260;10.988;2022-10-31T16:44:44;13.30;98.90
262;DHT22;114;48.260;10.988;2022-10-31T16:47:15;13.20;99.50
262;DHT22;114;48.260;10.988;2022-10-31T16:49:42;13.10;99.70
262;DHT22;114;48.260;10.988;2022-10-31T16:52:08;13.10;99.90
262;DHT22;114;48.260;10.988;2022-10-31T16:54:33;13.00;99.90
262;DHT22;114;48.260;10.988;2022-10-31T16:57:00;12.90;99.90
262;DHT22;114;48.260;10.988;2022-10-31T16:59:26;12.80;99.90
262;DHT22;114;48.260;10.988;2022-10-31T17:01:53;12.80;99.90
262;DHT22;114;48.260;10.988;2022-10-31T17:04:19;12.80;99.90
262;DHT22;114;48.260;10.988;2022-10-31T17:06:45;12.70;99.90
262;DHT22;114;48.260;10.988;2022-10-31T17:09:10;12.60;99.90
262;DHT22;114;48.260;10.988;2022-10-31T17:11:39;12.50;99.90
262;DHT22;114;48.260;10.988;2022-10-31T17:14:08;12.30;99.90
262;DHT22;114;48.260;10.988;2022-10-31T17:16:37;12.20;99.90
262;DHT22;114;48.260;10.988;2022-10-31T17:19:03;12.10;99.90
262;DHT22;114;48.260;10.988;2022-10-31T17:21:29;12.00;99.90
262;DHT22;114;48.260;10.988;2022-10-31T17:23:55;11.90;99.90
262;DHT22;114;48.260;10.988;2022-10-31T17:26:21;11.80;99.90
262;DHT22;114;48.260;10.988;2022-10-31T17:28:47;11.80;99.90
262;DHT22;114;48.260;10.988;2022-10-31T17:31:23;11.70;99.90
262;DHT22;114;48.260;10.988;2022-10-31T17:33:49;11.60;99.90
262;DHT22;114;48.260;10.988;2022-10-31T17:36:15;11.50;99.90
262;DHT22;114;48.260;10.988;2022-10-31T17:38:41;11.40;99.90
262;DHT22;114;48.260;10.988;2022-10-31T17:41:07;11.50;99.90
262;DHT22;114;48.260;10.988;2022-10-31T17:43:33;11.60;99.90
262;DHT22;114;48.260;10.988;2022-10-31T17:45:59;11.50;99.90
262;DHT22;114;48.260;10.988;2022-10-31T17:48:28;11.50;99.90
262;DHT22;114;48.260;10.988;2022-10-31T17:50:54;11.40;99.90
262;DHT22;114;48.260;10.988;2022-10-31T17:53:23;11.30;99.90
262;DHT22;114;48.260;10.988;2022-10-31T17:55:49;11.20;99.90
262;DHT22;114;48.260;10.988;2022-10-31T17:58:15;11.10;99.90
262;DHT22;114;48.260;10.988;2022-10-31T18:00:40;11.00;99.90
262;DHT22;114;48.260;10.988;2022-10-31T18:03:06;11.00;99.90
262;DHT22;114;48.260;10.988;2022-10-31T18:05:34;11.00;99.90
262;DHT22;114;48.260;10.988;2022-10-31T18:08:00;10.90;99.90
262;DHT22;114;48.260;10.988;2022-10-31T18:10:26;10.80;99.90
262;DHT22;114;48.260;10.988;2022-10-31T18:12:52;10.80;99.90
262;DHT22;114;48.260;10.988;2022-10-31T18:15:17;10.70;99.90
262;DHT22;114;48.260;10.988;2022-10-31T18:17:44;10.80;99.90
262;DHT22;114;48.260;10.988;2022-10-31T18:20:11;10.80;99.90
262;DHT22;114;48.260;10.988;2022-10-31T18:22:37;10.70;99.90
262;DHT22;114;48.260;10.988;2022-10-31T18:25:03;10.50;99.90
262;DHT22;114;48.260;10.988;2022-10-31T18:27:29;10.50;99.90
262;DHT22;114;48.260;10.988;2022-10-31T18:29:55;10.60;99.90
262;DHT22;114;48.260;10.988;2022-10-31T18:32:20;10.50;99.90
262;DHT22;114;48.260;10.988;2022-10-31T18:34:46;10.40;99.90
262;DHT22;114;48.260;10.988;2022-10-31T18:37:12;10.40;99.90
262;DHT22;114;48.260;10.988;2022-10-31T18:39:37;10.30;99.90
262;DHT22;114;48.260;10.988;2022-10-31T18:42:03;10.30;99.90
262;DHT22;114;48.260;10.988;2022-10-31T18:44:29;10.20;99.90
262;DHT22;114;48.260;10.988;2022-10-31T18:46:55;10.40;99.90
262;DHT22;114;48.260;10.988;2022-10-31T18:49:20;10.50;99.90
262;DHT22;114;48.260;10.988;2022-10-31T18:51:50;10.40;99.90
262;DHT22;114;48.260;10.988;2022-10-31T18:54:16;10.30;99.90
262;DHT22;114;48.260;10.988;2022-10-31T18:56:42;10.20;99.90
262;DHT22;114;48.260;10.988;2022-10-31T18:59:09;10.20;99.90
262;DHT22;114;48.260;10.988;2022-10-31T19:01:35;10.10;99.90
262;DHT22;114;48.260;10.988;2022-10-31T19:04:00;10.00;99.90
262;DHT22;114;48.260;10.988;2022-10-31T19:06:27;9.80;99.90
262;DHT22;114;48.260;10.988;2022-10-31T19:09:00;9.80;99.90
262;DHT22;114;48.260;10.988;2022-10-31T19:11:26;9.70;99.90
262;DHT22;114;48.260;10.988;2022-10-31T19:13:52;9.70;99.90
262;DHT22;114;48.260;10.988;2022-10-31T19:16:18;9.60;99.90
262;DHT22;114;48.260;10.988;2022-10-31T19:18:44;9.60;99.90
262;DHT22;114;48.260;10.988;2022-10-31T19:21:13;9.60;99.90